Time;durP1;ratioP1;P1;durP2;ratioP2;P2;SDS_P1;SDS_P2;PMS_P1;PMS_P2;Temp;Humidity;BMP_temperature;BMP_pressure;BME280_temperature;BME280_humidity;BME280_pressure;Samples;Min_cycle;Max_cycle;Signal;HPM_P1;HPM_P2
2022/09/25 00:01:19;;;;;;;;;;;20.60;70.30;;;;;;5037448;28;1955;-70
2022/09/25 00:03:44;;;;;;;;;;;20.60;70.30;;;;;;5036044;28;799;-71
2022/09/25 00:06:14;;;;;;;;;;;20.60;70.30;;;;;;5038695;28;1357;-70
2022/09/25 00:08:39;;;;;;;;;;;20.60;70.30;;;;;;5038144;28;847;-70
2022/09/25 00:11:05;;;;;;;;;;;20.60;70.30;;;;;;5042728;28;883;-72
2022/09/25 00:13:31;;;;;;;;;;;20.60;70.40;;;;;;5038391;28;933;-72
2022/09/25 00:15:57;;;;;;;;;;;20.60;70.30;;;;;;5035046;28;1361;-72
2022/09/25 00:21:28;;;;;;;;;;;20.60;70.30;;;;;;4987368;28;2027;-70
2022/09/25 00:23:53;;;;;;;;;;;20.60;70.30;;;;;;5032874;28;1312;-71
2022/09/25 00:26:19;;;;;;;;;;;20.60;70.30;;;;;;5040875;28;1373;-70
2022/09/25 00:28:44;;;;;;;;;;;20.60;70.40;;;;;;5042987;28;1036;-70
2022/09/25 00:31:10;;;;;;;;;;;20.60;70.30;;;;;;5040574;28;1359;-70
2022/09/25 00:33:35;;;;;;;;;;;20.60;70.30;;;;;;5043276;28;844;-70
2022/09/25 00:36:05;;;;;;;;;;;20.60;70.30;;;;;;5041225;28;1385;-70
2022/09/25 00:38:30;;;;;;;;;;;20.60;70.40;;;;;;5040279;28;844;-71
2022/09/25 00:40:56;;;;;;;;;;;20.60;70.40;;;;;;5042724;28;1956;-70
2022/09/25 00:43:36;;;;;;;;;;;20.60;70.40;;;;;;5043246;28;2123;-70
2022/09/25 00:46:01;;;;;;;;;;;20.50;70.30;;;;;;5039723;28;1299;-70
2022/09/25 00:48:26;;;;;;;;;;;20.60;70.40;;;;;;5041385;28;1545;-69
2022/09/25 00:50:52;;;;;;;;;;;20.50;70.40;;;;;;5035903;28;892;-71
2022/09/25 00:53:20;;;;;;;;;;;20.60;70.40;;;;;;5036765;28;1006;-70
2022/09/25 00:55:45;;;;;;;;;;;20.60;70.40;;;;;;5033153;28;1263;-70
2022/09/25 00:58:11;;;;;;;;;;;20.60;70.40;;;;;;5041303;28;1037;-71
2022/09/25 01:00:36;;;;;;;;;;;20.50;70.30;;;;;;5039498;28;2121;-70
2022/09/25 01:03:03;;;;;;;;;;;20.60;70.30;;;;;;5042795;28;1238;-70
2022/09/25 01:05:29;;;;;;;;;;;20.60;70.30;;;;;;5042063;28;1503;-71
2022/09/25 01:07:56;;;;;;;;;;;20.50;70.30;;;;;;5040817;28;1289;-70
2022/09/25 01:10:21;;;;;;;;;;;20.50;70.30;;;;;;5038494;28;827;-71
2022/09/25 01:12:47;;;;;;;;;;;20.60;70.40;;;;;;5040141;28;1006;-70
2022/09/25 01:15:13;;;;;;;;;;;20.50;70.30;;;;;;5072785;28;1279;-71
2022/09/25 01:17:51;;;;;;;;;;;20.50;70.30;;;;;;5048920;28;879;-70
2022/09/25 01:20:28;;;;;;;;;;;20.50;70.30;;;;;;5039102;28;1894;-71
2022/09/25 01:22:54;;;;;;;;;;;20.50;70.30;;;;;;5044851;28;1053;-70
2022/09/25 01:25:22;;;;;;;;;;;20.50;70.30;;;;;;5043371;28;1279;-70
2022/09/25 01:27:50;;;;;;;;;;;20.50;70.30;;;;;;5041613;28;1360;-70
2022/09/25 01:30:17;;;;;;;;;;;20.50;70.30;;;;;;5038828;28;850;-70
2022/09/25 01:32:50;;;;;;;;;;;20.50;70.30;;;;;;5043357;28;1330;-71
2022/09/25 01:35:33;;;;;;;;;;;20.50;70.40;;;;;;5038465;28;1361;-70
2022/09/25 01:38:08;;;;;;;;;;;20.50;70.40;;;;;;5038011;28;819;-70
2022/09/25 01:40:43;;;;;;;;;;;20.50;70.40;;;;;;5048644;28;1961;-71
2022/09/25 01:43:10;;;;;;;;;;;20.60;70.40;;;;;;5040468;28;1049;-70
2022/09/25 01:45:37;;;;;;;;;;;20.50;70.40;;;;;;5039598;28;1373;-70
2022/09/25 01:48:03;;;;;;;;;;;20.50;70.40;;;;;;5036371;28;913;-70
2022/09/25 01:50:31;;;;;;;;;;;20.50;70.40;;;;;;5037606;28;1034;-70
2022/09/25 01:52:58;;;;;;;;;;;20.50;70.40;;;;;;5040222;28;915;-70
2022/09/25 01:55:29;;;;;;;;;;;20.60;70.50;;;;;;5038675;28;1342;-69
2022/09/25 01:57:54;;;;;;;;;;;20.50;70.40;;;;;;5037784;28;1245;-69
2022/09/25 02:00:22;;;;;;;;;;;20.50;70.40;;;;;;5038421;28;1906;-71
2022/09/25 02:02:49;;;;;;;;;;;20.50;70.30;;;;;;5043295;28;1457;-70
2022/09/25 02:05:23;;;;;;;;;;;20.50;70.40;;;;;;5039659;28;1327;-70
2022/09/25 02:07:50;;;;;;;;;;;20.50;70.40;;;;;;5040145;28;845;-71
2022/09/25 02:10:20;;;;;;;;;;;20.50;70.40;;;;;;5040328;28;911;-71
2022/09/25 02:12:47;;;;;;;;;;;20.50;70.50;;;;;;5036418;28;927;-71
2022/09/25 02:15:14;;;;;;;;;;;20.50;70.40;;;;;;5033882;28;1272;-70
2022/09/25 02:20:32;;;;;;;;;;;20.50;70.40;;;;;;5044109;28;1903;-69
2022/09/25 02:23:17;;;;;;;;;;;20.50;70.40;;;;;;5040891;28;1332;-69
2022/09/25 02:25:43;;;;;;;;;;;20.50;70.40;;;;;;5039323;28;1412;-72
2022/09/25 02:28:08;;;;;;;;;;;20.50;70.40;;;;;;5034150;28;879;-70
2022/09/25 02:30:34;;;;;;;;;;;20.50;70.40;;;;;;5038599;28;854;-68
2022/09/25 02:32:59;;;;;;;;;;;20.50;70.40;;;;;;5040098;28;898;-68
2022/09/25 02:35:25;;;;;;;;;;;20.50;70.40;;;;;;5038738;28;1365;-68
2022/09/25 02:37:51;;;;;;;;;;;20.50;70.50;;;;;;5039856;28;845;-68
2022/09/25 02:40:16;;;;;;;;;;;20.50;70.50;;;;;;5039438;28;912;-70
2022/09/25 02:42:59;;;;;;;;;;;20.50;70.40;;;;;;5034695;28;1902;-70
2022/09/25 02:45:24;;;;;;;;;;;20.50;70.50;;;;;;5039440;28;1347;-71
2022/09/25 02:47:54;;;;;;;;;;;20.50;70.40;;;;;;5040131;28;1023;-70
2022/09/25 02:50:38;;;;;;;;;;;20.50;70.40;;;;;;5039516;28;836;-70
2022/09/25 02:53:08;;;;;;;;;;;20.50;70.50;;;;;;5042812;28;852;-70
2022/09/25 02:55:38;;;;;;;;;;;20.50;70.40;;;;;;5040003;28;1582;-70
2022/09/25 02:58:12;;;;;;;;;;;20.50;70.50;;;;;;5023823;28;1308;-70
2022/09/25 03:00:38;;;;;;;;;;;20.50;70.40;;;;;;5040576;28;1906;-70
2022/09/25 03:03:05;;;;;;;;;;;20.50;70.40;;;;;;5039171;28;1561;-70
2022/09/25 03:05:30;;;;;;;;;;;20.50;70.40;;;;;;5034955;28;1277;-70
2022/09/25 03:10:44;;;;;;;;;;;20.50;70.50;;;;;;5042202;28;770;-70
2022/09/25 03:13:25;;;;;;;;;;;20.50;70.40;;;;;;5042235;28;885;-70
2022/09/25 03:15:52;;;;;;;;;;;20.50;70.50;;;;;;5035794;28;1359;-70
2022/09/25 03:18:17;;;;;;;;;;;20.50;70.50;;;;;;5040489;28;903;-70
2022/09/25 03:20:43;;;;;;;;;;;20.50;70.50;;;;;;5033508;28;1907;-70
2022/09/25 03:23:10;;;;;;;;;;;20.50;70.50;;;;;;5040440;28;907;-70
2022/09/25 03:25:36;;;;;;;;;;;20.50;70.50;;;;;;5040065;28;1291;-70
2022/09/25 03:28:02;;;;;;;;;;;20.50;70.50;;;;;;5041575;28;1291;-70
2022/09/25 03:30:28;;;;;;;;;;;20.50;70.50;;;;;;5037327;28;888;-70
2022/09/25 03:32:53;;;;;;;;;;;20.50;70.50;;;;;;5039959;28;1370;-70
2022/09/25 03:35:19;;;;;;;;;;;20.50;70.50;;;;;;5037815;28;1342;-70
2022/09/25 03:37:44;;;;;;;;;;;20.50;70.50;;;;;;5043541;28;1108;-70
2022/09/25 03:40:11;;;;;;;;;;;20.50;70.50;;;;;;5040062;28;1036;-70
2022/09/25 03:42:37;;;;;;;;;;;20.50;70.50;;;;;;5038649;28;1910;-70
2022/09/25 03:45:03;;;;;;;;;;;20.50;70.50;;;;;;5045120;28;1240;-70
2022/09/25 03:47:28;;;;;;;;;;;20.50;70.60;;;;;;5037727;28;855;-70
2022/09/25 03:49:53;;;;;;;;;;;20.50;70.50;;;;;;5041653;28;1096;-70
2022/09/25 03:52:20;;;;;;;;;;;20.50;70.60;;;;;;5036333;28;859;-70
2022/09/25 03:54:46;;;;;;;;;;;20.50;70.60;;;;;;5041698;28;1281;-70
2022/09/25 03:57:13;;;;;;;;;;;20.50;70.60;;;;;;5037014;28;978;-70
2022/09/25 03:59:39;;;;;;;;;;;20.50;70.50;;;;;;5041283;28;904;-70
2022/09/25 04:02:04;;;;;;;;;;;20.50;70.60;;;;;;5043352;28;1899;-70
2022/09/25 04:04:31;;;;;;;;;;;20.50;70.60;;;;;;5043462;28;1271;-70
2022/09/25 04:06:56;;;;;;;;;;;20.50;70.50;;;;;;5042743;28;922;-70
2022/09/25 04:09:22;;;;;;;;;;;20.50;70.50;;;;;;5038427;28;1010;-70
2022/09/25 04:11:47;;;;;;;;;;;20.50;70.60;;;;;;5044112;28;1188;-70
2022/09/25 04:14:13;;;;;;;;;;;20.50;70.50;;;;;;5041984;28;954;-70
2022/09/25 04:16:39;;;;;;;;;;;20.50;70.50;;;;;;5044226;28;1291;-70
2022/09/25 04:19:05;;;;;;;;;;;20.50;70.50;;;;;;5041648;28;1066;-69
2022/09/25 04:21:31;;;;;;;;;;;20.50;70.50;;;;;;5041464;28;1906;-70
2022/09/25 04:26:40;;;;;;;;;;;20.50;70.60;;;;;;5037293;28;1335;-70
2022/09/25 04:29:06;;;;;;;;;;;20.50;70.60;;;;;;5045920;28;917;-70
2022/09/25 04:31:32;;;;;;;;;;;20.50;70.60;;;;;;5043285;28;990;-70
2022/09/25 04:33:57;;;;;;;;;;;20.50;70.60;;;;;;5040915;28;891;-70
2022/09/25 04:36:23;;;;;;;;;;;20.50;70.60;;;;;;5039093;28;1344;-70
2022/09/25 04:38:48;;;;;;;;;;;20.50;70.70;;;;;;5041579;28;813;-70
2022/09/25 04:41:15;;;;;;;;;;;20.50;70.70;;;;;;5040655;28;1961;-70
2022/09/25 04:43:41;;;;;;;;;;;20.50;70.70;;;;;;5041896;28;856;-70
2022/09/25 04:46:08;;;;;;;;;;;20.50;70.60;;;;;;5042422;28;1338;-70
2022/09/25 04:48:34;;;;;;;;;;;20.50;70.60;;;;;;5049281;28;883;-70
2022/09/25 04:50:59;;;;;;;;;;;20.50;70.70;;;;;;5050912;28;836;-70
2022/09/25 04:53:26;;;;;;;;;;;20.50;70.60;;;;;;5046846;28;817;-70
2022/09/25 04:55:53;;;;;;;;;;;20.50;70.60;;;;;;5039945;28;1296;-70
2022/09/25 04:58:18;;;;;;;;;;;20.50;70.60;;;;;;5041924;28;903;-70
2022/09/25 05:00:44;;;;;;;;;;;20.50;70.60;;;;;;5040565;28;1914;-70
2022/09/25 05:03:09;;;;;;;;;;;20.50;70.60;;;;;;5040543;28;843;-70
2022/09/25 05:05:35;;;;;;;;;;;20.50;70.70;;;;;;5040437;28;1283;-70
2022/09/25 05:08:00;;;;;;;;;;;20.50;70.70;;;;;;5040186;28;885;-70
2022/09/25 05:10:27;;;;;;;;;;;20.50;70.70;;;;;;5037847;28;1037;-70
2022/09/25 05:12:59;;;;;;;;;;;20.50;70.70;;;;;;5040845;28;808;-70
2022/09/25 05:15:25;;;;;;;;;;;20.50;70.70;;;;;;5038077;28;1295;-70
2022/09/25 05:17:57;;;;;;;;;;;20.50;70.60;;;;;;5038045;28;911;-70
2022/09/25 05:20:23;;;;;;;;;;;20.50;70.70;;;;;;5040319;28;811;-70
2022/09/25 05:22:52;;;;;;;;;;;20.50;70.70;;;;;;5040562;28;1954;-70
2022/09/25 05:25:22;;;;;;;;;;;20.50;70.70;;;;;;5040992;28;1292;-70
2022/09/25 05:27:47;;;;;;;;;;;20.50;70.70;;;;;;5042141;28;1352;-70
2022/09/25 05:30:13;;;;;;;;;;;20.50;70.70;;;;;;5045569;28;1456;-70
2022/09/25 05:32:38;;;;;;;;;;;20.50;70.70;;;;;;5040122;28;1423;-70
2022/09/25 05:35:04;;;;;;;;;;;20.50;70.70;;;;;;5040478;28;1314;-70
2022/09/25 05:37:29;;;;;;;;;;;20.50;70.70;;;;;;5040218;28;810;-71
2022/09/25 05:39:55;;;;;;;;;;;20.50;71.50;;;;;;5043069;28;1105;-70
2022/09/25 05:42:21;;;;;;;;;;;20.50;70.70;;;;;;5039678;28;1922;-70
2022/09/25 05:44:47;;;;;;;;;;;20.50;70.70;;;;;;5038950;28;1695;-70
2022/09/25 05:47:12;;;;;;;;;;;20.50;70.80;;;;;;5037983;28;800;-69
2022/09/25 05:49:38;;;;;;;;;;;20.50;70.80;;;;;;5043246;28;839;-70
2022/09/25 05:52:03;;;;;;;;;;;20.50;70.80;;;;;;5040580;28;902;-70
2022/09/25 05:54:29;;;;;;;;;;;20.50;70.70;;;;;;5038821;28;1275;-70
2022/09/25 05:56:54;;;;;;;;;;;20.50;70.70;;;;;;5041482;28;843;-69
2022/09/25 05:59:20;;;;;;;;;;;20.50;70.70;;;;;;5039018;28;946;-70
2022/09/25 06:01:45;;;;;;;;;;;20.50;70.70;;;;;;5039093;28;1962;-70
2022/09/25 06:04:11;;;;;;;;;;;20.50;70.70;;;;;;5039719;28;814;-70
2022/09/25 06:06:36;;;;;;;;;;;20.50;70.70;;;;;;5040311;28;1282;-70
2022/09/25 06:09:02;;;;;;;;;;;20.50;70.70;;;;;;5041885;28;875;-70
2022/09/25 06:11:30;;;;;;;;;;;20.50;70.80;;;;;;5038831;28;866;-70
2022/09/25 06:13:56;;;;;;;;;;;20.50;70.80;;;;;;5041816;28;895;-70
2022/09/25 06:16:22;;;;;;;;;;;20.50;70.70;;;;;;5045991;28;1294;-70
2022/09/25 06:18:47;;;;;;;;;;;20.50;70.80;;;;;;5040519;28;911;-70
2022/09/25 06:21:13;;;;;;;;;;;20.50;70.80;;;;;;5038698;28;1910;-70
2022/09/25 06:23:40;;;;;;;;;;;20.50;70.80;;;;;;5042857;28;943;-70
2022/09/25 06:26:05;;;;;;;;;;;20.50;70.70;;;;;;5042119;28;1201;-70
2022/09/25 06:28:31;;;;;;;;;;;20.50;70.80;;;;;;5037922;28;1254;-70
2022/09/25 06:31:00;;;;;;;;;;;20.50;70.70;;;;;;5038050;28;794;-71
2022/09/25 06:33:25;;;;;;;;;;;20.50;70.70;;;;;;5032213;28;1670;-67
2022/09/25 06:35:51;;;;;;;;;;;20.50;70.70;;;;;;5018628;28;4527;-67
2022/09/25 06:38:16;;;;;;;;;;;20.50;70.70;;;;;;5038079;28;974;-69
2022/09/25 06:40:42;;;;;;;;;;;20.50;70.70;;;;;;5035672;28;1902;-67
2022/09/25 06:43:12;;;;;;;;;;;20.50;70.70;;;;;;5034294;28;899;-69
2022/09/25 06:45:38;;;;;;;;;;;20.50;70.70;;;;;;5033724;28;1264;-70
2022/09/25 06:48:04;;;;;;;;;;;20.50;70.80;;;;;;5040011;28;927;-70
2022/09/25 06:50:35;;;;;;;;;;;20.50;70.70;;;;;;5040107;28;922;-70
2022/09/25 06:53:00;;;;;;;;;;;20.50;70.80;;;;;;5038719;28;867;-68
2022/09/25 06:55:26;;;;;;;;;;;20.50;70.70;;;;;;5035227;28;1267;-70
2022/09/25 06:57:52;;;;;;;;;;;20.50;70.80;;;;;;5035702;28;866;-69
2022/09/25 07:00:17;;;;;;;;;;;20.50;70.70;;;;;;5039629;28;942;-68
2022/09/25 07:05:27;;;;;;;;;;;20.50;70.70;;;;;;5039362;28;1392;-71
2022/09/25 07:07:53;;;;;;;;;;;20.50;70.80;;;;;;5035441;28;1264;-69
2022/09/25 07:10:18;;;;;;;;;;;20.50;70.70;;;;;;5038282;28;1290;-68
2022/09/25 07:12:43;;;;;;;;;;;20.50;70.80;;;;;;5041188;28;884;-68
2022/09/25 07:15:10;;;;;;;;;;;20.50;70.80;;;;;;5039921;28;1283;-69
2022/09/25 07:17:36;;;;;;;;;;;20.50;70.80;;;;;;5037565;28;1912;-68
2022/09/25 07:20:01;;;;;;;;;;;20.50;70.80;;;;;;5039443;28;1176;-68
2022/09/25 07:22:27;;;;;;;;;;;20.50;70.80;;;;;;5038167;28;1961;-69
2022/09/25 07:24:53;;;;;;;;;;;20.50;70.80;;;;;;5036360;28;1365;-69
2022/09/25 07:27:18;;;;;;;;;;;20.50;70.80;;;;;;5040799;28;1287;-68
2022/09/25 07:29:44;;;;;;;;;;;20.50;70.80;;;;;;5042147;28;816;-68
2022/09/25 07:32:09;;;;;;;;;;;20.50;70.80;;;;;;5038356;28;1294;-68
2022/09/25 07:34:36;;;;;;;;;;;20.50;70.80;;;;;;5037369;28;1365;-67
2022/09/25 07:37:02;;;;;;;;;;;20.50;70.80;;;;;;5038857;28;892;-68
2022/09/25 07:39:27;;;;;;;;;;;20.50;70.70;;;;;;5042326;28;950;-68
2022/09/25 07:41:53;;;;;;;;;;;20.50;70.80;;;;;;5048027;28;1921;-68
2022/09/25 07:44:18;;;;;;;;;;;20.50;70.80;;;;;;5046491;28;898;-68
2022/09/25 07:46:44;;;;;;;;;;;20.50;70.80;;;;;;5040482;28;1362;-68
2022/09/25 07:49:10;;;;;;;;;;;20.50;70.80;;;;;;5043883;28;906;-68
2022/09/25 07:51:35;;;;;;;;;;;20.50;70.80;;;;;;5043310;28;847;-67
2022/09/25 07:54:01;;;;;;;;;;;20.50;70.60;;;;;;5032119;28;1998;-68
2022/09/25 07:56:26;;;;;;;;;;;20.60;70.50;;;;;;5038995;28;1261;-68
2022/09/25 07:58:52;;;;;;;;;;;20.60;70.40;;;;;;5035794;28;880;-68
2022/09/25 08:01:18;;;;;;;;;;;20.60;70.30;;;;;;5033231;28;2030;-68
2022/09/25 08:03:43;;;;;;;;;;;20.70;70.20;;;;;;5039815;28;911;-68
2022/09/25 08:06:10;;;;;;;;;;;20.70;70.00;;;;;;5039469;28;1385;-68
2022/09/25 08:08:36;;;;;;;;;;;20.80;69.90;;;;;;5039148;28;849;-68
2022/09/25 08:11:02;;;;;;;;;;;20.80;69.70;;;;;;5047670;28;900;-68
2022/09/25 08:13:27;;;;;;;;;;;20.80;69.60;;;;;;5038647;28;899;-68
2022/09/25 08:15:53;;;;;;;;;;;20.90;69.40;;;;;;5037861;28;1688;-68
2022/09/25 08:18:18;;;;;;;;;;;20.90;69.30;;;;;;5031841;28;4100;-68
2022/09/25 08:20:44;;;;;;;;;;;20.90;69.20;;;;;;5039578;28;2119;-69
2022/09/25 08:23:09;;;;;;;;;;;20.90;69.10;;;;;;5036462;28;1269;-67
2022/09/25 08:25:35;;;;;;;;;;;21.00;69.10;;;;;;5038684;28;1285;-68
2022/09/25 08:28:01;;;;;;;;;;;20.90;69.00;;;;;;5037335;28;1312;-68
2022/09/25 08:30:28;;;;;;;;;;;21.00;68.90;;;;;;5038757;28;894;-68
2022/09/25 08:32:53;;;;;;;;;;;21.00;68.80;;;;;;5037739;28;955;-68
2022/09/25 08:35:19;;;;;;;;;;;21.00;68.80;;;;;;5037463;28;1329;-68
2022/09/25 08:37:45;;;;;;;;;;;21.00;68.70;;;;;;5035691;28;910;-68
2022/09/25 08:40:21;;;;;;;;;;;21.00;68.70;;;;;;5039666;28;1221;-68
2022/09/25 08:42:47;;;;;;;;;;;21.00;68.60;;;;;;5037875;28;1945;-69
2022/09/25 08:50:48;;;;;;;;;;;21.10;68.60;;;;;;5037160;28;1164;-69
2022/09/25 08:53:19;;;;;;;;;;;21.10;68.50;;;;;;5036620;28;1778;-70
2022/09/25 08:58:29;;;;;;;;;;;21.10;68.40;;;;;;5040809;28;1435;-68
2022/09/25 09:00:57;;;;;;;;;;;21.10;68.40;;;;;;5044088;28;1992;-69
2022/09/25 09:03:24;;;;;;;;;;;21.10;68.40;;;;;;5041165;28;1391;-68
2022/09/25 09:05:51;;;;;;;;;;;21.10;68.30;;;;;;5043239;28;1280;-69
2022/09/25 09:08:17;;;;;;;;;;;21.10;68.30;;;;;;5048723;28;1611;-68
2022/09/25 09:10:43;;;;;;;;;;;21.10;68.30;;;;;;5039709;28;850;-69
2022/09/25 09:13:41;;;;;;;;;;;21.10;68.20;;;;;;5050208;28;1376;-68
2022/09/25 09:16:07;;;;;;;;;;;21.10;68.20;;;;;;5001695;28;1347;-69
2022/09/25 09:18:36;;;;;;;;;;;21.20;68.30;;;;;;5025680;28;1567;-68
2022/09/25 09:21:07;;;;;;;;;;;21.20;68.20;;;;;;5035571;28;1951;-69
2022/09/25 09:23:34;;;;;;;;;;;21.20;68.30;;;;;;5038685;28;1098;-69
2022/09/25 09:26:04;;;;;;;;;;;21.20;68.20;;;;;;5039214;28;1253;-68
2022/09/25 09:28:52;;;;;;;;;;;21.20;68.30;;;;;;5040351;28;1459;-68
2022/09/25 09:31:36;;;;;;;;;;;21.20;68.20;;;;;;5039024;28;1073;-67
2022/09/25 09:34:02;;;;;;;;;;;21.20;68.30;;;;;;5045472;28;942;-68
2022/09/25 09:36:36;;;;;;;;;;;21.20;68.30;;;;;;5041822;28;1337;-68
2022/09/25 09:39:20;;;;;;;;;;;21.20;68.20;;;;;;5041193;28;875;-68
2022/09/25 09:41:54;;;;;;;;;;;21.20;68.20;;;;;;5039676;28;1910;-68
2022/09/25 09:44:26;;;;;;;;;;;21.10;68.20;;;;;;5041243;28;816;-68
2022/09/25 09:47:01;;;;;;;;;;;21.10;69.00;;;;;;5038752;28;1001;-69
2022/09/25 09:49:35;;;;;;;;;;;21.20;68.30;;;;;;5037683;28;903;-68
2022/09/25 09:52:19;;;;;;;;;;;21.10;68.20;;;;;;5040142;28;836;-68
2022/09/25 09:55:03;;;;;;;;;;;21.10;68.20;;;;;;5043503;28;1362;-67
2022/09/25 09:57:33;;;;;;;;;;;21.20;68.30;;;;;;5037434;28;1072;-68
2022/09/25 10:00:02;;;;;;;;;;;21.10;68.20;;;;;;5031032;28;1284;-70
2022/09/25 10:02:29;;;;;;;;;;;21.10;68.30;;;;;;5033232;28;1914;-68
2022/09/25 10:04:54;;;;;;;;;;;21.10;68.30;;;;;;5038711;28;1273;-68
2022/09/25 10:07:21;;;;;;;;;;;21.10;68.30;;;;;;5038735;28;931;-68
2022/09/25 10:09:48;;;;;;;;;;;21.10;68.40;;;;;;5037353;28;1006;-67
2022/09/25 10:12:34;;;;;;;;;;;21.10;68.30;;;;;;5046643;28;1590;-68
2022/09/25 10:15:01;;;;;;;;;;;21.20;68.40;;;;;;5035481;28;1287;-68
2022/09/25 10:17:27;;;;;;;;;;;21.10;68.30;;;;;;5038280;28;870;-68
2022/09/25 10:19:59;;;;;;;;;;;21.10;68.30;;;;;;5036432;28;856;-68
2022/09/25 10:22:25;;;;;;;;;;;21.10;68.30;;;;;;5044785;28;1991;-67
2022/09/25 10:24:57;;;;;;;;;;;21.10;68.40;;;;;;5032813;28;1304;-69
2022/09/25 10:27:28;;;;;;;;;;;21.10;68.40;;;;;;5035468;28;1332;-68
2022/09/25 10:30:26;;;;;;;;;;;21.20;68.40;;;;;;5035692;28;808;-67
2022/09/25 10:32:54;;;;;;;;;;;21.10;68.40;;;;;;5020989;28;1452;-68
2022/09/25 10:35:40;;;;;;;;;;;21.10;68.40;;;;;;5035694;28;1336;-69
2022/09/25 10:38:13;;;;;;;;;;;21.10;68.40;;;;;;5040675;28;1211;-67
2022/09/25 10:40:39;;;;;;;;;;;21.10;68.40;;;;;;5037823;28;1907;-69
2022/09/25 10:43:16;;;;;;;;;;;21.10;68.40;;;;;;5042316;28;820;-67
2022/09/25 10:45:41;;;;;;;;;;;21.10;68.50;;;;;;5038877;28;2093;-68
2022/09/25 10:51:10;;;;;;;;;;;21.10;68.50;;;;;;5044944;28;805;-68
2022/09/25 10:53:36;;;;;;;;;;;21.10;68.50;;;;;;5036860;28;890;-69
2022/09/25 10:56:03;;;;;;;;;;;21.10;68.50;;;;;;5037309;28;1273;-67
2022/09/25 10:58:35;;;;;;;;;;;21.10;68.60;;;;;;5039743;28;819;-68
2022/09/25 11:01:00;;;;;;;;;;;21.10;68.60;;;;;;5037805;28;1961;-68
2022/09/25 11:03:27;;;;;;;;;;;21.10;68.60;;;;;;5033291;28;1027;-68
2022/09/25 11:05:57;;;;;;;;;;;21.10;68.60;;;;;;5047075;28;1354;-68
2022/09/25 11:08:22;;;;;;;;;;;21.10;68.70;;;;;;5031680;28;1073;-68
2022/09/25 11:10:52;;;;;;;;;;;21.10;68.60;;;;;;5041156;28;2133;-68
2022/09/25 11:13:28;;;;;;;;;;;21.10;68.70;;;;;;5039271;28;1382;-69
2022/09/25 11:15:57;;;;;;;;;;;21.10;68.70;;;;;;5039591;28;1427;-68
2022/09/25 11:18:33;;;;;;;;;;;21.10;68.70;;;;;;5034920;28;789;-69
2022/09/25 11:21:02;;;;;;;;;;;21.00;68.70;;;;;;5037751;28;1918;-68
2022/09/25 11:23:28;;;;;;;;;;;21.00;68.70;;;;;;5046513;28;1331;-69
2022/09/25 11:25:56;;;;;;;;;;;21.00;68.80;;;;;;5043420;28;1386;-68
2022/09/25 11:28:36;;;;;;;;;;;21.00;68.80;;;;;;5039472;28;1187;-68
2022/09/25 11:31:17;;;;;;;;;;;21.00;68.80;;;;;;5039313;28;925;-69
2022/09/25 11:33:44;;;;;;;;;;;21.00;68.80;;;;;;5038871;28;1182;-70
2022/09/25 11:36:15;;;;;;;;;;;21.00;68.80;;;;;;5036103;28;1474;-69
2022/09/25 11:41:37;;;;;;;;;;;21.00;68.90;;;;;;5035484;28;1961;-68
2022/09/25 11:44:08;;;;;;;;;;;21.00;68.90;;;;;;5037046;28;2503;-69
2022/09/25 11:46:52;;;;;;;;;;;21.00;68.90;;;;;;5037978;28;1936;-70
2022/09/25 11:49:25;;;;;;;;;;;21.00;69.00;;;;;;5040186;28;1236;-71
2022/09/25 11:52:06;;;;;;;;;;;21.00;69.10;;;;;;5038342;28;847;-70
2022/09/25 11:54:40;;;;;;;;;;;21.00;69.10;;;;;;5037995;28;1209;-71
2022/09/25 11:57:09;;;;;;;;;;;21.00;69.10;;;;;;5036241;28;804;-71
2022/09/25 11:59:37;;;;;;;;;;;21.00;69.10;;;;;;5036053;28;928;-70
2022/09/25 12:02:11;;;;;;;;;;;20.90;69.10;;;;;;5040654;28;1953;-71
2022/09/25 12:04:56;;;;;;;;;;;20.90;69.10;;;;;;5038990;28;1387;-70
2022/09/25 12:07:22;;;;;;;;;;;21.00;69.20;;;;;;5038765;28;807;-71
2022/09/25 12:10:03;;;;;;;;;;;20.90;69.20;;;;;;5038599;28;796;-71
2022/09/25 12:12:38;;;;;;;;;;;20.90;69.20;;;;;;5034920;28;910;-70
2022/09/25 12:15:13;;;;;;;;;;;20.90;69.20;;;;;;5037012;28;1362;-70
2022/09/25 12:17:46;;;;;;;;;;;20.90;69.20;;;;;;5039861;28;840;-70
2022/09/25 12:20:47;;;;;;;;;;;20.90;69.20;;;;;;5040177;28;1389;-69
2022/09/25 12:23:32;;;;;;;;;;;20.90;69.20;;;;;;4979201;28;1360;-70
2022/09/25 12:26:07;;;;;;;;;;;20.90;69.30;;;;;;5035339;28;1275;-70
2022/09/25 12:28:32;;;;;;;;;;;20.90;69.30;;;;;;5040976;28;1268;-69
2022/09/25 12:30:57;;;;;;;;;;;20.90;69.30;;;;;;5042922;28;899;-68
2022/09/25 12:33:33;;;;;;;;;;;20.90;69.30;;;;;;5041288;28;962;-70
2022/09/25 12:36:04;;;;;;;;;;;20.90;69.40;;;;;;5038197;28;1295;-69
2022/09/25 12:38:30;;;;;;;;;;;20.90;69.40;;;;;;5049249;28;836;-70
2022/09/25 12:41:01;;;;;;;;;;;20.90;69.40;;;;;;5039724;28;1961;-70
2022/09/25 12:43:40;;;;;;;;;;;20.90;69.40;;;;;;5039746;28;896;-70
2022/09/25 12:46:08;;;;;;;;;;;20.90;69.40;;;;;;5028703;28;1784;-70
2022/09/25 12:48:36;;;;;;;;;;;20.90;69.50;;;;;;5047544;28;859;-70
2022/09/25 12:51:12;;;;;;;;;;;20.90;69.50;;;;;;5036655;28;871;-70
2022/09/25 12:53:46;;;;;;;;;;;20.90;69.50;;;;;;5049592;28;869;-70
2022/09/25 12:56:17;;;;;;;;;;;20.90;69.50;;;;;;5040067;28;1254;-70
2022/09/25 12:58:51;;;;;;;;;;;20.90;69.60;;;;;;5042621;28;883;-70
2022/09/25 13:01:28;;;;;;;;;;;20.90;69.60;;;;;;5041675;28;1910;-69
2022/09/25 13:03:57;;;;;;;;;;;20.90;69.60;;;;;;5038522;28;824;-70
2022/09/25 13:06:23;;;;;;;;;;;20.80;69.60;;;;;;5037655;28;1243;-69
2022/09/25 13:08:54;;;;;;;;;;;20.90;69.70;;;;;;5041691;28;872;-70
2022/09/25 13:11:35;;;;;;;;;;;20.90;69.70;;;;;;5039863;28;982;-70
2022/09/25 13:14:01;;;;;;;;;;;20.90;69.70;;;;;;5038700;28;832;-68
2022/09/25 13:16:26;;;;;;;;;;;20.90;69.70;;;;;;5048443;28;1288;-69
2022/09/25 13:19:08;;;;;;;;;;;20.90;69.70;;;;;;5037439;28;947;-69
2022/09/25 13:21:37;;;;;;;;;;;20.90;69.80;;;;;;5041162;28;1898;-68
2022/09/25 13:24:07;;;;;;;;;;;20.90;69.80;;;;;;5041175;28;917;-68
2022/09/25 13:26:33;;;;;;;;;;;20.90;69.80;;;;;;5043826;28;1295;-69
2022/09/25 13:29:00;;;;;;;;;;;20.80;69.80;;;;;;5035303;28;1402;-69
2022/09/25 13:31:29;;;;;;;;;;;20.80;69.80;;;;;;5037154;28;1400;-68
2022/09/25 13:34:04;;;;;;;;;;;20.80;69.90;;;;;;5047354;28;1630;-69
2022/09/25 13:36:31;;;;;;;;;;;20.90;69.90;;;;;;5039678;28;1302;-68
2022/09/25 13:41:48;;;;;;;;;;;20.80;69.90;;;;;;5038781;28;1951;-69
2022/09/25 13:44:33;;;;;;;;;;;20.80;69.90;;;;;;5046840;28;942;-69
2022/09/25 13:47:17;;;;;;;;;;;20.80;69.90;;;;;;5040113;28;883;-69
2022/09/25 13:50:08;;;;;;;;;;;20.80;70.00;;;;;;5044300;28;840;-68
2022/09/25 13:52:37;;;;;;;;;;;20.80;70.00;;;;;;5039604;28;1537;-69
2022/09/25 13:55:17;;;;;;;;;;;20.80;70.00;;;;;;5042337;28;1336;-68
2022/09/25 13:57:56;;;;;;;;;;;20.80;70.00;;;;;;5041590;28;914;-68
2022/09/25 14:00:22;;;;;;;;;;;20.80;70.00;;;;;;5039772;28;903;-69
2022/09/25 14:02:47;;;;;;;;;;;20.80;70.00;;;;;;5037184;28;1973;-69
2022/09/25 14:05:17;;;;;;;;;;;20.80;70.10;;;;;;5036310;28;1253;-68
2022/09/25 14:07:42;;;;;;;;;;;20.80;70.10;;;;;;5034530;28;816;-68
2022/09/25 14:10:09;;;;;;;;;;;20.80;70.10;;;;;;5047582;28;886;-70
2022/09/25 14:12:41;;;;;;;;;;;20.80;70.10;;;;;;5037804;28;826;-69
2022/09/25 14:15:20;;;;;;;;;;;20.80;70.10;;;;;;5047159;28;1276;-69
2022/09/25 14:17:45;;;;;;;;;;;20.80;70.10;;;;;;5041305;28;847;-68
2022/09/25 14:20:30;;;;;;;;;;;20.80;70.20;;;;;;5037765;28;832;-69
2022/09/25 14:22:57;;;;;;;;;;;20.80;70.20;;;;;;5040388;28;1902;-69
2022/09/25 14:25:22;;;;;;;;;;;20.80;70.20;;;;;;5035046;28;1225;-69
2022/09/25 14:27:51;;;;;;;;;;;20.80;70.20;;;;;;5042017;28;1271;-69
2022/09/25 14:30:17;;;;;;;;;;;20.80;70.20;;;;;;5040894;28;894;-70
2022/09/25 14:32:52;;;;;;;;;;;20.80;70.30;;;;;;5040341;28;1496;-70
2022/09/25 14:35:34;;;;;;;;;;;20.80;70.30;;;;;;5034275;28;1343;-70
2022/09/25 14:38:09;;;;;;;;;;;20.80;70.30;;;;;;5038659;28;914;-70
2022/09/25 14:40:35;;;;;;;;;;;20.80;70.30;;;;;;5036117;28;914;-69
2022/09/25 14:43:23;;;;;;;;;;;20.70;70.20;;;;;;5037027;28;1957;-69
2022/09/25 14:46:19;;;;;;;;;;;20.80;70.40;;;;;;5039472;28;1391;-70
2022/09/25 14:48:45;;;;;;;;;;;20.80;70.40;;;;;;5023399;28;1369;-70
2022/09/25 14:51:15;;;;;;;;;;;20.80;70.40;;;;;;5039446;28;1868;-70
2022/09/25 14:53:42;;;;;;;;;;;20.70;70.40;;;;;;5025600;28;985;-70
2022/09/25 14:56:14;;;;;;;;;;;20.70;70.40;;;;;;5047388;28;1501;-70
2022/09/25 14:58:44;;;;;;;;;;;20.80;70.40;;;;;;5039470;28;1367;-70
2022/09/25 15:01:12;;;;;;;;;;;20.70;70.40;;;;;;5027753;28;4028;-69
2022/09/25 15:03:41;;;;;;;;;;;20.70;70.40;;;;;;5035431;28;1362;-70
2022/09/25 15:06:06;;;;;;;;;;;20.70;70.40;;;;;;5033251;28;1229;-66
2022/09/25 15:08:36;;;;;;;;;;;20.70;69.20;;;;;;5035954;28;2126;-67
2022/09/25 15:11:03;;;;;;;;;;;20.70;67.50;;;;;;5040310;28;1460;-66
2022/09/25 15:13:32;;;;;;;;;;;20.70;66.80;;;;;;5038590;28;1383;-66
2022/09/25 15:18:42;;;;;;;;;;;20.70;65.20;;;;;;5046763;28;1374;-67
2022/09/25 15:21:27;;;;;;;;;;;20.70;65.60;;;;;;5036590;28;1902;-67